sensor_id;sensor_type;location;lat;lon;timestamp;P1;durP1;ratioP1;P2;durP2;ratioP2
35444;SDS011;21562;49.476;6.086;2022-09-27T00:01:06;11.45;;;2.80;;
35444;SDS011;21562;49.476;6.086;2022-09-27T00:03:35;8.98;;;3.83;;
35444;SDS011;21562;49.476;6.086;2022-09-27T00:06:06;11.23;;;3.17;;
35444;SDS011;21562;49.476;6.086;2022-09-27T00:08:35;9.35;;;2.97;;
35444;SDS011;21562;49.476;6.086;2022-09-27T00:11:17;11.63;;;3.55;;
35444;SDS011;21562;49.476;6.086;2022-09-27T00:13:56;9.00;;;3.65;;
35444;SDS011;21562;49.476;6.086;2022-09-27T00:16:24;10.95;;;2.13;;
35444;SDS011;21562;49.476;6.086;2022-09-27T00:18:51;8.63;;;2.85;;
35444;SDS011;21562;49.476;6.086;2022-09-27T00:21:17;13.95;;;3.53;;
35444;SDS011;21562;49.476;6.086;2022-09-27T00:23:43;5.63;;;2.38;;
35444;SDS011;21562;49.476;6.086;2022-09-27T00:26:12;10.35;;;3.20;;
35444;SDS011;21562;49.476;6.086;2022-09-27T00:28:38;14.40;;;3.10;;
35444;SDS011;21562;49.476;6.086;2022-09-27T00:31:10;11.40;;;3.20;;
35444;SDS011;21562;49.476;6.086;2022-09-27T00:33:45;10.20;;;2.65;;
35444;SDS011;21562;49.476;6.086;2022-09-27T00:36:16;8.13;;;2.63;;
35444;SDS011;21562;49.476;6.086;2022-09-27T00:38:43;13.73;;;3.63;;
35444;SDS011;21562;49.476;6.086;2022-09-27T00:41:17;8.43;;;3.53;;
35444;SDS011;21562;49.476;6.086;2022-09-27T00:44:52;16.75;;;4.00;;
35444;SDS011;21562;49.476;6.086;2022-09-27T00:46:49;12.38;;;3.40;;
35444;SDS011;21562;49.476;6.086;2022-09-27T00:49:42;9.23;;;2.22;;
35444;SDS011;21562;49.476;6.086;2022-09-27T00:54:49;10.07;;;1.88;;
35444;SDS011;21562;49.476;6.086;2022-09-27T00:57:19;2.80;;;1.33;;
35444;SDS011;21562;49.476;6.086;2022-09-27T00:59:51;5.22;;;1.35;;
35444;SDS011;21562;49.476;6.086;2022-09-27T01:02:22;5.78;;;1.20;;
35444;SDS011;21562;49.476;6.086;2022-09-27T01:04:48;3.95;;;1.02;;
35444;SDS011;21562;49.476;6.086;2022-09-27T01:07:14;4.45;;;0.95;;
35444;SDS011;21562;49.476;6.086;2022-09-27T01:09:40;4.10;;;0.95;;
35444;SDS011;21562;49.476;6.086;2022-09-27T01:14:51;5.15;;;0.80;;
35444;SDS011;21562;49.476;6.086;2022-09-27T01:32:16;3.17;;;0.63;;
35444;SDS011;21562;49.476;6.086;2022-09-27T01:41:17;4.72;;;1.30;;
35444;SDS011;21562;49.476;6.086;2022-09-27T01:43:22;4.35;;;1.88;;
35444;SDS011;21562;49.476;6.086;2022-09-27T01:45:55;6.18;;;1.08;;
35444;SDS011;21562;49.476;6.086;2022-09-27T01:48:48;1.83;;;1.05;;
35444;SDS011;21562;49.476;6.086;2022-09-27T01:51:16;2.90;;;1.08;;
35444;SDS011;21562;49.476;6.086;2022-09-27T01:53:46;4.63;;;1.88;;
35444;SDS011;21562;49.476;6.086;2022-09-27T01:56:21;3.22;;;1.20;;
35444;SDS011;21562;49.476;6.086;2022-09-27T01:58:59;2.83;;;1.38;;
35444;SDS011;21562;49.476;6.086;2022-09-27T02:01:36;6.88;;;1.50;;
35444;SDS011;21562;49.476;6.086;2022-09-27T02:04:06;5.55;;;1.40;;
35444;SDS011;21562;49.476;6.086;2022-09-27T02:06:38;3.55;;;1.50;;
35444;SDS011;21562;49.476;6.086;2022-09-27T02:11:44;7.45;;;1.55;;
35444;SDS011;21562;49.476;6.086;2022-09-27T02:14:21;5.30;;;1.50;;
35444;SDS011;21562;49.476;6.086;2022-09-27T02:16:56;10.45;;;1.52;;
35444;SDS011;21562;49.476;6.086;2022-09-27T02:24:57;2.65;;;1.25;;
35444;SDS011;21562;49.476;6.086;2022-09-27T02:27:37;3.20;;;1.05;;
35444;SDS011;21562;49.476;6.086;2022-09-27T02:30:13;2.72;;;1.33;;
35444;SDS011;21562;49.476;6.086;2022-09-27T02:32:40;4.95;;;1.40;;
35444;SDS011;21562;49.476;6.086;2022-09-27T02:35:09;6.47;;;1.20;;
35444;SDS011;21562;49.476;6.086;2022-09-27T02:37:43;5.80;;;1.05;;
35444;SDS011;21562;49.476;6.086;2022-09-27T02:40:09;3.03;;;1.00;;
35444;SDS011;21562;49.476;6.086;2022-09-27T02:42:35;3.85;;;1.00;;
35444;SDS011;21562;49.476;6.086;2022-09-27T02:45:02;5.35;;;0.80;;
35444;SDS011;21562;49.476;6.086;2022-09-27T02:47:53;2.65;;;0.80;;
35444;SDS011;21562;49.476;6.086;2022-09-27T02:59:05;2.10;;;0.75;;
35444;SDS011;21562;49.476;6.086;2022-09-27T03:07:18;2.80;;;0.73;;
35444;SDS011;21562;49.476;6.086;2022-09-27T03:09:45;4.22;;;0.60;;
35444;SDS011;21562;49.476;6.086;2022-09-27T03:12:13;1.80;;;0.75;;
35444;SDS011;21562;49.476;6.086;2022-09-27T03:14:44;3.88;;;0.90;;
35444;SDS011;21562;49.476;6.086;2022-09-27T03:17:11;4.65;;;0.80;;
35444;SDS011;21562;49.476;6.086;2022-09-27T03:19:36;2.35;;;0.88;;
35444;SDS011;21562;49.476;6.086;2022-09-27T03:22:02;1.23;;;0.88;;
35444;SDS011;21562;49.476;6.086;2022-09-27T03:24:28;3.78;;;0.90;;
35444;SDS011;21562;49.476;6.086;2022-09-27T03:26:53;2.65;;;0.90;;
35444;SDS011;21562;49.476;6.086;2022-09-27T03:29:19;2.42;;;0.60;;
35444;SDS011;21562;49.476;6.086;2022-09-27T03:31:45;1.50;;;0.70;;
35444;SDS011;21562;49.476;6.086;2022-09-27T03:34:11;1.92;;;0.88;;
35444;SDS011;21562;49.476;6.086;2022-09-27T03:36:36;2.05;;;0.60;;
35444;SDS011;21562;49.476;6.086;2022-09-27T03:39:02;5.60;;;1.13;;
35444;SDS011;21562;49.476;6.086;2022-09-27T03:41:28;3.05;;;0.65;;
35444;SDS011;21562;49.476;6.086;2022-09-27T03:43:53;1.30;;;0.60;;
35444;SDS011;21562;49.476;6.086;2022-09-27T03:46:21;2.25;;;0.85;;
35444;SDS011;21562;49.476;6.086;2022-09-27T03:48:47;1.83;;;0.90;;
35444;SDS011;21562;49.476;6.086;2022-09-27T03:51:13;3.55;;;1.40;;
35444;SDS011;21562;49.476;6.086;2022-09-27T03:53:39;2.20;;;0.93;;
35444;SDS011;21562;49.476;6.086;2022-09-27T03:56:05;2.55;;;0.70;;
35444;SDS011;21562;49.476;6.086;2022-09-27T03:58:30;2.22;;;0.70;;
35444;SDS011;21562;49.476;6.086;2022-09-27T04:00:56;3.38;;;0.77;;
35444;SDS011;21562;49.476;6.086;2022-09-27T04:03:22;1.48;;;0.55;;
35444;SDS011;21562;49.476;6.086;2022-09-27T04:05:47;3.95;;;1.17;;
35444;SDS011;21562;49.476;6.086;2022-09-27T04:08:13;1.27;;;0.70;;
35444;SDS011;21562;49.476;6.086;2022-09-27T04:10:39;4.30;;;0.70;;
35444;SDS011;21562;49.476;6.086;2022-09-27T04:13:06;2.10;;;1.05;;
35444;SDS011;21562;49.476;6.086;2022-09-27T04:15:32;3.35;;;1.13;;
35444;SDS011;21562;49.476;6.086;2022-09-27T04:17:57;3.20;;;0.95;;
35444;SDS011;21562;49.476;6.086;2022-09-27T04:20:23;3.80;;;1.20;;
35444;SDS011;21562;49.476;6.086;2022-09-27T04:22:49;2.33;;;1.02;;
35444;SDS011;21562;49.476;6.086;2022-09-27T04:25:15;6.57;;;1.42;;
35444;SDS011;21562;49.476;6.086;2022-09-27T04:27:44;2.78;;;1.35;;
35444;SDS011;21562;49.476;6.086;2022-09-27T04:30:11;4.40;;;1.88;;
35444;SDS011;21562;49.476;6.086;2022-09-27T04:32:41;3.72;;;2.03;;
35444;SDS011;21562;49.476;6.086;2022-09-27T04:35:11;5.50;;;2.10;;
35444;SDS011;21562;49.476;6.086;2022-09-27T04:37:55;9.02;;;2.40;;
35444;SDS011;21562;49.476;6.086;2022-09-27T04:40:22;3.42;;;2.28;;
35444;SDS011;21562;49.476;6.086;2022-09-27T04:42:48;4.18;;;2.63;;
35444;SDS011;21562;49.476;6.086;2022-09-27T04:45:14;7.47;;;2.10;;
35444;SDS011;21562;49.476;6.086;2022-09-27T04:47:42;4.65;;;2.30;;
35444;SDS011;21562;49.476;6.086;2022-09-27T04:50:11;2.92;;;1.73;;
35444;SDS011;21562;49.476;6.086;2022-09-27T04:52:38;5.90;;;1.83;;
35444;SDS011;21562;49.476;6.086;2022-09-27T04:55:04;5.47;;;3.03;;
35444;SDS011;21562;49.476;6.086;2022-09-27T04:57:32;4.22;;;1.85;;
35444;SDS011;21562;49.476;6.086;2022-09-27T04:59:58;4.57;;;2.60;;
35444;SDS011;21562;49.476;6.086;2022-09-27T05:02:27;4.47;;;2.17;;
35444;SDS011;21562;49.476;6.086;2022-09-27T05:04:53;6.00;;;2.90;;
35444;SDS011;21562;49.476;6.086;2022-09-27T05:07:26;6.32;;;2.47;;
35444;SDS011;21562;49.476;6.086;2022-09-27T05:09:52;8.02;;;3.03;;
35444;SDS011;21562;49.476;6.086;2022-09-27T05:12:19;6.95;;;3.22;;
35444;SDS011;21562;49.476;6.086;2022-09-27T05:14:45;17.58;;;4.03;;
35444;SDS011;21562;49.476;6.086;2022-09-27T05:17:11;16.02;;;3.47;;
35444;SDS011;21562;49.476;6.086;2022-09-27T05:19:37;6.15;;;3.10;;
35444;SDS011;21562;49.476;6.086;2022-09-27T05:22:04;8.10;;;3.35;;
35444;SDS011;21562;49.476;6.086;2022-09-27T05:24:31;7.47;;;2.97;;
35444;SDS011;21562;49.476;6.086;2022-09-27T05:26:58;10.75;;;3.28;;
35444;SDS011;21562;49.476;6.086;2022-09-27T05:29:24;10.65;;;4.18;;
35444;SDS011;21562;49.476;6.086;2022-09-27T05:31:50;15.18;;;4.25;;
35444;SDS011;21562;49.476;6.086;2022-09-27T05:34:16;29.15;;;7.07;;
35444;SDS011;21562;49.476;6.086;2022-09-27T05:36:46;13.63;;;5.07;;
35444;SDS011;21562;49.476;6.086;2022-09-27T05:39:12;20.38;;;4.70;;
35444;SDS011;21562;49.476;6.086;2022-09-27T05:41:38;10.70;;;3.60;;
35444;SDS011;21562;49.476;6.086;2022-09-27T05:44:05;18.42;;;4.65;;
35444;SDS011;21562;49.476;6.086;2022-09-27T05:46:30;11.32;;;3.78;;
35444;SDS011;21562;49.476;6.086;2022-09-27T05:48:56;10.18;;;3.95;;
35444;SDS011;21562;49.476;6.086;2022-09-27T05:51:22;14.52;;;5.45;;
35444;SDS011;21562;49.476;6.086;2022-09-27T05:53:48;7.28;;;3.75;;
35444;SDS011;21562;49.476;6.086;2022-09-27T05:56:13;9.35;;;3.88;;
35444;SDS011;21562;49.476;6.086;2022-09-27T05:58:39;13.63;;;3.60;;
35444;SDS011;21562;49.476;6.086;2022-09-27T06:01:05;17.23;;;4.85;;
35444;SDS011;21562;49.476;6.086;2022-09-27T06:03:32;9.68;;;3.90;;
35444;SDS011;21562;49.476;6.086;2022-09-27T06:06:02;20.63;;;6.55;;
35444;SDS011;21562;49.476;6.086;2022-09-27T06:08:32;12.88;;;4.65;;
35444;SDS011;21562;49.476;6.086;2022-09-27T06:11:00;14.57;;;4.13;;
35444;SDS011;21562;49.476;6.086;2022-09-27T06:13:30;9.52;;;3.95;;
35444;SDS011;21562;49.476;6.086;2022-09-27T06:16:01;14.23;;;4.03;;
35444;SDS011;21562;49.476;6.086;2022-09-27T06:18:27;15.55;;;4.55;;
35444;SDS011;21562;49.476;6.086;2022-09-27T06:20:53;15.63;;;5.82;;
35444;SDS011;21562;49.476;6.086;2022-09-27T06:23:20;9.73;;;4.00;;
35444;SDS011;21562;49.476;6.086;2022-09-27T06:25:47;16.90;;;5.18;;
35444;SDS011;21562;49.476;6.086;2022-09-27T06:28:14;15.98;;;7.15;;
35444;SDS011;21562;49.476;6.086;2022-09-27T06:30:42;13.65;;;4.90;;
35444;SDS011;21562;49.476;6.086;2022-09-27T06:33:10;16.00;;;4.90;;
35444;SDS011;21562;49.476;6.086;2022-09-27T06:35:37;15.57;;;5.97;;
35444;SDS011;21562;49.476;6.086;2022-09-27T06:38:04;18.23;;;6.65;;
35444;SDS011;21562;49.476;6.086;2022-09-27T06:40:33;14.90;;;5.05;;
35444;SDS011;21562;49.476;6.086;2022-09-27T06:43:03;15.52;;;5.68;;
35444;SDS011;21562;49.476;6.086;2022-09-27T06:45:31;22.42;;;6.65;;
35444;SDS011;21562;49.476;6.086;2022-09-27T06:47:57;12.48;;;5.45;;
35444;SDS011;21562;49.476;6.086;2022-09-27T06:50:29;10.95;;;5.47;;
35444;SDS011;21562;49.476;6.086;2022-09-27T06:52:57;22.00;;;6.60;;
35444;SDS011;21562;49.476;6.086;2022-09-27T06:55:23;21.08;;;6.88;;
35444;SDS011;21562;49.476;6.086;2022-09-27T06:57:52;17.88;;;6.10;;
35444;SDS011;21562;49.476;6.086;2022-09-27T07:00:37;14.10;;;5.07;;
35444;SDS011;21562;49.476;6.086;2022-09-27T07:03:03;13.68;;;5.75;;
35444;SDS011;21562;49.476;6.086;2022-09-27T07:05:29;18.40;;;5.63;;
35444;SDS011;21562;49.476;6.086;2022-09-27T07:07:55;11.10;;;5.32;;
35444;SDS011;21562;49.476;6.086;2022-09-27T07:10:27;17.35;;;5.80;;
35444;SDS011;21562;49.476;6.086;2022-09-27T07:12:54;29.00;;;8.13;;
35444;SDS011;21562;49.476;6.086;2022-09-27T07:15:21;17.38;;;5.18;;
35444;SDS011;21562;49.476;6.086;2022-09-27T07:17:47;16.90;;;5.10;;
35444;SDS011;21562;49.476;6.086;2022-09-27T07:20:23;20.98;;;6.10;;
35444;SDS011;21562;49.476;6.086;2022-09-27T07:22:52;16.17;;;6.05;;
35444;SDS011;21562;49.476;6.086;2022-09-27T07:25:18;22.73;;;5.63;;
35444;SDS011;21562;49.476;6.086;2022-09-27T07:27:44;23.60;;;6.47;;
35444;SDS011;21562;49.476;6.086;2022-09-27T07:30:10;21.13;;;6.25;;
35444;SDS011;21562;49.476;6.086;2022-09-27T07:32:36;18.42;;;5.03;;
35444;SDS011;21562;49.476;6.086;2022-09-27T07:35:03;14.82;;;5.03;;
35444;SDS011;21562;49.476;6.086;2022-09-27T07:37:34;11.25;;;3.55;;
35444;SDS011;21562;49.476;6.086;2022-09-27T07:40:02;15.85;;;5.13;;
35444;SDS011;21562;49.476;6.086;2022-09-27T07:42:31;20.90;;;5.85;;
35444;SDS011;21562;49.476;6.086;2022-09-27T07:44:57;5.53;;;3.05;;
35444;SDS011;21562;49.476;6.086;2022-09-27T07:47:23;30.77;;;6.80;;
35444;SDS011;21562;49.476;6.086;2022-09-27T07:49:50;7.05;;;2.63;;
35444;SDS011;21562;49.476;6.086;2022-09-27T07:52:20;7.95;;;2.50;;
35444;SDS011;21562;49.476;6.086;2022-09-27T07:54:46;8.02;;;2.78;;
35444;SDS011;21562;49.476;6.086;2022-09-27T07:57:13;8.95;;;3.30;;
35444;SDS011;21562;49.476;6.086;2022-09-27T07:59:39;13.15;;;3.33;;
35444;SDS011;21562;49.476;6.086;2022-09-27T08:02:06;26.33;;;4.43;;
35444;SDS011;21562;49.476;6.086;2022-09-27T08:04:39;18.42;;;3.42;;
35444;SDS011;21562;49.476;6.086;2022-09-27T08:07:05;6.15;;;3.10;;
35444;SDS011;21562;49.476;6.086;2022-09-27T08:09:31;5.07;;;2.88;;
35444;SDS011;21562;49.476;6.086;2022-09-27T08:11:56;5.50;;;2.28;;
35444;SDS011;21562;49.476;6.086;2022-09-27T08:14:22;7.10;;;2.50;;
35444;SDS011;21562;49.476;6.086;2022-09-27T08:16:48;6.10;;;2.70;;
35444;SDS011;21562;49.476;6.086;2022-09-27T08:19:15;15.40;;;4.32;;
35444;SDS011;21562;49.476;6.086;2022-09-27T08:21:42;10.30;;;2.97;;
35444;SDS011;21562;49.476;6.086;2022-09-27T08:24:08;6.28;;;2.25;;
35444;SDS011;21562;49.476;6.086;2022-09-27T08:26:33;27.48;;;4.63;;
35444;SDS011;21562;49.476;6.086;2022-09-27T08:28:59;3.78;;;2.17;;
35444;SDS011;21562;49.476;6.086;2022-09-27T08:31:25;20.92;;;3.42;;
35444;SDS011;21562;49.476;6.086;2022-09-27T08:33:51;3.72;;;1.88;;
35444;SDS011;21562;49.476;6.086;2022-09-27T08:36:17;3.75;;;1.02;;
35444;SDS011;21562;49.476;6.086;2022-09-27T08:38:46;4.97;;;1.30;;
35444;SDS011;21562;49.476;6.086;2022-09-27T08:43:48;2.38;;;1.30;;
35444;SDS011;21562;49.476;6.086;2022-09-27T08:49:13;4.97;;;1.48;;
35444;SDS011;21562;49.476;6.086;2022-09-27T08:51:43;8.48;;;1.80;;
35444;SDS011;21562;49.476;6.086;2022-09-27T08:54:13;8.00;;;2.72;;
35444;SDS011;21562;49.476;6.086;2022-09-27T08:56:46;3.80;;;2.05;;
35444;SDS011;21562;49.476;6.086;2022-09-27T08:59:16;3.58;;;1.75;;
35444;SDS011;21562;49.476;6.086;2022-09-27T09:01:50;8.00;;;3.15;;
35444;SDS011;21562;49.476;6.086;2022-09-27T09:04:22;13.63;;;3.85;;
35444;SDS011;21562;49.476;6.086;2022-09-27T09:12:12;7.03;;;2.30;;
35444;SDS011;21562;49.476;6.086;2022-09-27T09:29:15;14.18;;;4.15;;
35444;SDS011;21562;49.476;6.086;2022-09-27T09:34:41;13.95;;;4.00;;
35444;SDS011;21562;49.476;6.086;2022-09-27T09:37:20;17.67;;;4.18;;
35444;SDS011;21562;49.476;6.086;2022-09-27T09:40:47;9.85;;;3.20;;
35444;SDS011;21562;49.476;6.086;2022-09-27T09:45:27;18.17;;;3.80;;
35444;SDS011;21562;49.476;6.086;2022-09-27T09:50:41;12.02;;;3.65;;
35444;SDS011;21562;49.476;6.086;2022-09-27T09:53:14;11.13;;;3.28;;
35444;SDS011;21562;49.476;6.086;2022-09-27T09:56:06;12.77;;;3.33;;
35444;SDS011;21562;49.476;6.086;2022-09-27T10:04:05;10.88;;;2.63;;
35444;SDS011;21562;49.476;6.086;2022-09-27T10:06:33;9.85;;;2.65;;
35444;SDS011;21562;49.476;6.086;2022-09-27T10:08:58;11.35;;;1.90;;
35444;SDS011;21562;49.476;6.086;2022-09-27T10:11:26;6.82;;;2.20;;
35444;SDS011;21562;49.476;6.086;2022-09-27T10:14:00;6.05;;;1.83;;
35444;SDS011;21562;49.476;6.086;2022-09-27T10:16:26;13.68;;;2.50;;
35444;SDS011;21562;49.476;6.086;2022-09-27T10:18:54;14.40;;;2.20;;
35444;SDS011;21562;49.476;6.086;2022-09-27T10:21:25;4.70;;;1.85;;
35444;SDS011;21562;49.476;6.086;2022-09-27T10:24:02;8.88;;;2.00;;
35444;SDS011;21562;49.476;6.086;2022-09-27T10:26:39;7.10;;;1.80;;
35444;SDS011;21562;49.476;6.086;2022-09-27T10:29:20;4.47;;;1.80;;
35444;SDS011;21562;49.476;6.086;2022-09-27T10:31:48;8.02;;;1.90;;
35444;SDS011;21562;49.476;6.086;2022-09-27T10:37:00;6.45;;;2.90;;
35444;SDS011;21562;49.476;6.086;2022-09-27T10:39:31;11.00;;;2.67;;
35444;SDS011;21562;49.476;6.086;2022-09-27T10:41:57;10.77;;;3.22;;
35444;SDS011;21562;49.476;6.086;2022-09-27T10:47:06;5.28;;;1.17;;
35444;SDS011;21562;49.476;6.086;2022-09-27T10:49:37;6.82;;;1.75;;
35444;SDS011;21562;49.476;6.086;2022-09-27T10:52:12;6.93;;;1.67;;
35444;SDS011;21562;49.476;6.086;2022-09-27T10:54:40;8.45;;;1.92;;
35444;SDS011;21562;49.476;6.086;2022-09-27T10:59:40;8.05;;;2.28;;
35444;SDS011;21562;49.476;6.086;2022-09-27T11:02:21;10.57;;;3.20;;
35444;SDS011;21562;49.476;6.086;2022-09-27T11:07:37;2.47;;;1.30;;
35444;SDS011;21562;49.476;6.086;2022-09-27T11:10:19;2.42;;;0.50;;
35444;SDS011;21562;49.476;6.086;2022-09-27T11:46:23;1.80;;;0.40;;
35444;SDS011;21562;49.476;6.086;2022-09-27T11:52:04;4.45;;;1.98;;
35444;SDS011;21562;49.476;6.086;2022-09-27T11:54:46;1.67;;;0.30;;
35444;SDS011;21562;49.476;6.086;2022-09-27T11:57:44;3.20;;;0.60;;
35444;SDS011;21562;49.476;6.086;2022-09-27T12:11:21;5.35;;;1.13;;
35444;SDS011;21562;49.476;6.086;2022-09-27T12:14:35;3.03;;;0.68;;
35444;SDS011;21562;49.476;6.086;2022-09-27T12:17:27;0.90;;;0.50;;
35444;SDS011;21562;49.476;6.086;2022-09-27T12:19:57;0.70;;;0.38;;
35444;SDS011;21562;49.476;6.086;2022-09-27T12:22:29;3.45;;;0.40;;
35444;SDS011;21562;49.476;6.086;2022-09-27T12:24:59;1.02;;;0.40;;
35444;SDS011;21562;49.476;6.086;2022-09-27T12:27:33;5.47;;;0.60;;
35444;SDS011;21562;49.476;6.086;2022-09-27T12:30:03;1.23;;;0.60;;
35444;SDS011;21562;49.476;6.086;2022-09-27T12:33:04;1.17;;;0.35;;
35444;SDS011;21562;49.476;6.086;2022-09-27T12:35:27;2.03;;;0.50;;
35444;SDS011;21562;49.476;6.086;2022-09-27T12:40:50;1.27;;;0.43;;
35444;SDS011;21562;49.476;6.086;2022-09-27T12:43:22;2.22;;;0.70;;
35444;SDS011;21562;49.476;6.086;2022-09-27T12:50:52;3.17;;;0.55;;
35444;SDS011;21562;49.476;6.086;2022-09-27T12:53:24;1.45;;;0.60;;
35444;SDS011;21562;49.476;6.086;2022-09-27T13:14:39;1.17;;;0.70;;
35444;SDS011;21562;49.476;6.086;2022-09-27T13:19:57;5.13;;;0.80;;
35444;SDS011;21562;49.476;6.086;2022-09-27T13:24:52;3.15;;;1.58;;
35444;SDS011;21562;49.476;6.086;2022-09-27T13:29:47;4.55;;;1.98;;
35444;SDS011;21562;49.476;6.086;2022-09-27T13:32:15;1.85;;;0.90;;
35444;SDS011;21562;49.476;6.086;2022-09-27T13:42:43;5.97;;;0.98;;
35444;SDS011;21562;49.476;6.086;2022-09-27T13:47:51;6.63;;;1.50;;
35444;SDS011;21562;49.476;6.086;2022-09-27T13:50:22;3.63;;;0.50;;
35444;SDS011;21562;49.476;6.086;2022-09-27T13:55:51;3.53;;;0.73;;
35444;SDS011;21562;49.476;6.086;2022-09-27T14:00:50;3.90;;;0.45;;
35444;SDS011;21562;49.476;6.086;2022-09-27T14:05:57;5.03;;;0.90;;
35444;SDS011;21562;49.476;6.086;2022-09-27T14:08:31;2.25;;;0.95;;
35444;SDS011;21562;49.476;6.086;2022-09-27T14:11:03;3.13;;;0.80;;
35444;SDS011;21562;49.476;6.086;2022-09-27T14:13:36;7.32;;;1.17;;
35444;SDS011;21562;49.476;6.086;2022-09-27T14:16:03;3.33;;;0.93;;
35444;SDS011;21562;49.476;6.086;2022-09-27T14:18:31;4.10;;;0.88;;
35444;SDS011;21562;49.476;6.086;2022-09-27T14:21:15;3.80;;;0.90;;
35444;SDS011;21562;49.476;6.086;2022-09-27T14:26:43;3.42;;;1.10;;
35444;SDS011;21562;49.476;6.086;2022-09-27T14:29:18;4.70;;;1.40;;
35444;SDS011;21562;49.476;6.086;2022-09-27T14:31:46;4.65;;;0.98;;
35444;SDS011;21562;49.476;6.086;2022-09-27T14:34:33;4.35;;;0.90;;
35444;SDS011;21562;49.476;6.086;2022-09-27T14:36:58;5.72;;;1.67;;
35444;SDS011;21562;49.476;6.086;2022-09-27T14:39:43;7.57;;;1.85;;
35444;SDS011;21562;49.476;6.086;2022-09-27T14:42:20;4.97;;;1.13;;
35444;SDS011;21562;49.476;6.086;2022-09-27T14:44:49;5.95;;;1.63;;
35444;SDS011;21562;49.476;6.086;2022-09-27T14:47:20;7.50;;;1.60;;
35444;SDS011;21562;49.476;6.086;2022-09-27T14:52:22;2.33;;;1.00;;
35444;SDS011;21562;49.476;6.086;2022-09-27T14:54:56;2.67;;;1.02;;
35444;SDS011;21562;49.476;6.086;2022-09-27T14:57:44;4.63;;;1.02;;
35444;SDS011;21562;49.476;6.086;2022-09-27T15:00:16;2.75;;;1.05;;
35444;SDS011;21562;49.476;6.086;2022-09-27T15:02:42;5.60;;;1.40;;
35444;SDS011;21562;49.476;6.086;2022-09-27T15:05:18;5.63;;;1.30;;
35444;SDS011;21562;49.476;6.086;2022-09-27T15:07:47;4.03;;;0.88;;
35444;SDS011;21562;49.476;6.086;2022-09-27T15:10:14;3.67;;;1.08;;
35444;SDS011;21562;49.476;6.086;2022-09-27T15:12:42;2.95;;;1.00;;
35444;SDS011;21562;49.476;6.086;2022-09-27T15:15:13;6.03;;;1.02;;
35444;SDS011;21562;49.476;6.086;2022-09-27T15:17:41;3.72;;;1.83;;
35444;SDS011;21562;49.476;6.086;2022-09-27T15:20:17;2.08;;;0.80;;
35444;SDS011;21562;49.476;6.086;2022-09-27T15:22:47;4.90;;;1.40;;
35444;SDS011;21562;49.476;6.086;2022-09-27T15:27:45;3.83;;;0.80;;
35444;SDS011;21562;49.476;6.086;2022-09-27T15:30:16;7.22;;;1.42;;
35444;SDS011;21562;49.476;6.086;2022-09-27T15:32:47;5.00;;;0.93;;
35444;SDS011;21562;49.476;6.086;2022-09-27T15:35:19;6.07;;;1.10;;
35444;SDS011;21562;49.476;6.086;2022-09-27T15:37:48;1.92;;;0.68;;
35444;SDS011;21562;49.476;6.086;2022-09-27T15:42:56;5.03;;;0.95;;
35444;SDS011;21562;49.476;6.086;2022-09-27T15:45:26;3.50;;;0.82;;
35444;SDS011;21562;49.476;6.086;2022-09-27T15:48:19;5.60;;;0.82;;
35444;SDS011;21562;49.476;6.086;2022-09-27T15:50:44;2.53;;;1.00;;
35444;SDS011;21562;49.476;6.086;2022-09-27T15:53:11;5.85;;;1.95;;
35444;SDS011;21562;49.476;6.086;2022-09-27T15:55:57;2.67;;;0.98;;
35444;SDS011;21562;49.476;6.086;2022-09-27T15:58:24;8.15;;;1.40;;
35444;SDS011;21562;49.476;6.086;2022-09-27T16:00:54;2.42;;;1.08;;
35444;SDS011;21562;49.476;6.086;2022-09-27T16:03:24;4.40;;;1.67;;
35444;SDS011;21562;49.476;6.086;2022-09-27T16:05:51;5.18;;;1.80;;
35444;SDS011;21562;49.476;6.086;2022-09-27T16:08:20;8.52;;;3.88;;
35444;SDS011;21562;49.476;6.086;2022-09-27T16:10:50;7.57;;;3.40;;
35444;SDS011;21562;49.476;6.086;2022-09-27T16:13:19;5.88;;;2.45;;
35444;SDS011;21562;49.476;6.086;2022-09-27T16:15:44;6.15;;;2.20;;
35444;SDS011;21562;49.476;6.086;2022-09-27T16:18:11;6.68;;;2.30;;
35444;SDS011;21562;49.476;6.086;2022-09-27T16:20:37;8.88;;;2.15;;
35444;SDS011;21562;49.476;6.086;2022-09-27T16:23:03;6.63;;;2.05;;
35444;SDS011;21562;49.476;6.086;2022-09-27T16:25:29;7.38;;;2.65;;
35444;SDS011;21562;49.476;6.086;2022-09-27T16:27:58;5.20;;;1.50;;
35444;SDS011;21562;49.476;6.086;2022-09-27T16:30:26;5.03;;;1.38;;
35444;SDS011;21562;49.476;6.086;2022-09-27T16:32:52;6.47;;;1.27;;
35444;SDS011;21562;49.476;6.086;2022-09-27T16:35:19;6.28;;;1.25;;
35444;SDS011;21562;49.476;6.086;2022-09-27T16:37:45;8.15;;;1.48;;
35444;SDS011;21562;49.476;6.086;2022-09-27T16:40:12;4.35;;;1.20;;
35444;SDS011;21562;49.476;6.086;2022-09-27T16:42:39;3.90;;;1.20;;
35444;SDS011;21562;49.476;6.086;2022-09-27T16:45:06;8.80;;;1.17;;
35444;SDS011;21562;49.476;6.086;2022-09-27T16:47:32;5.30;;;2.25;;
35444;SDS011;21562;49.476;6.086;2022-09-27T16:49:59;6.50;;;0.98;;
35444;SDS011;21562;49.476;6.086;2022-09-27T16:52:43;8.30;;;1.27;;
35444;SDS011;21562;49.476;6.086;2022-09-27T16:55:13;6.45;;;1.20;;
35444;SDS011;21562;49.476;6.086;2022-09-27T16:57:45;5.88;;;1.30;;
35444;SDS011;21562;49.476;6.086;2022-09-27T17:00:15;6.20;;;1.25;;
35444;SDS011;21562;49.476;6.086;2022-09-27T17:02:41;6.00;;;1.27;;
35444;SDS011;21562;49.476;6.086;2022-09-27T17:05:11;6.72;;;1.05;;
35444;SDS011;21562;49.476;6.086;2022-09-27T17:07:37;4.25;;;0.98;;
35444;SDS011;21562;49.476;6.086;2022-09-27T17:10:03;6.80;;;1.35;;
35444;SDS011;21562;49.476;6.086;2022-09-27T17:12:30;4.75;;;0.90;;
35444;SDS011;21562;49.476;6.086;2022-09-27T17:14:56;7.22;;;1.42;;
35444;SDS011;21562;49.476;6.086;2022-09-27T17:17:22;5.05;;;1.70;;
35444;SDS011;21562;49.476;6.086;2022-09-27T17:19:47;3.78;;;1.42;;
35444;SDS011;21562;49.476;6.086;2022-09-27T17:22:13;2.58;;;0.90;;
35444;SDS011;21562;49.476;6.086;2022-09-27T17:24:39;4.30;;;1.17;;
35444;SDS011;21562;49.476;6.086;2022-09-27T17:27:05;5.05;;;1.40;;
35444;SDS011;21562;49.476;6.086;2022-09-27T17:29:30;8.65;;;1.52;;
35444;SDS011;21562;49.476;6.086;2022-09-27T17:31:56;5.05;;;1.48;;
35444;SDS011;21562;49.476;6.086;2022-09-27T17:34:21;4.10;;;1.45;;
35444;SDS011;21562;49.476;6.086;2022-09-27T17:36:47;6.20;;;1.83;;
35444;SDS011;21562;49.476;6.086;2022-09-27T17:39:16;6.25;;;1.50;;
35444;SDS011;21562;49.476;6.086;2022-09-27T17:41:45;8.73;;;1.77;;
35444;SDS011;21562;49.476;6.086;2022-09-27T17:44:12;6.68;;;2.10;;
35444;SDS011;21562;49.476;6.086;2022-09-27T17:46:40;2.38;;;1.70;;
35444;SDS011;21562;49.476;6.086;2022-09-27T17:49:08;5.53;;;3.15;;
35444;SDS011;21562;49.476;6.086;2022-09-27T17:51:53;6.60;;;2.33;;
35444;SDS011;21562;49.476;6.086;2022-09-27T17:54:20;5.03;;;2.20;;
35444;SDS011;21562;49.476;6.086;2022-09-27T17:56:47;4.13;;;1.85;;
35444;SDS011;21562;49.476;6.086;2022-09-27T17:59:14;6.00;;;2.45;;
35444;SDS011;21562;49.476;6.086;2022-09-27T18:01:41;6.07;;;1.85;;
35444;SDS011;21562;49.476;6.086;2022-09-27T18:04:08;10.30;;;2.10;;
35444;SDS011;21562;49.476;6.086;2022-09-27T18:06:39;6.38;;;1.55;;
35444;SDS011;21562;49.476;6.086;2022-09-27T18:09:07;4.28;;;1.90;;
35444;SDS011;21562;49.476;6.086;2022-09-27T18:11:34;7.28;;;1.90;;
35444;SDS011;21562;49.476;6.086;2022-09-27T18:14:00;4.18;;;1.60;;
35444;SDS011;21562;49.476;6.086;2022-09-27T18:16:27;9.15;;;1.60;;
35444;SDS011;21562;49.476;6.086;2022-09-27T18:18:56;5.38;;;2.10;;
35444;SDS011;21562;49.476;6.086;2022-09-27T18:21:23;5.03;;;1.25;;
35444;SDS011;21562;49.476;6.086;2022-09-27T18:23:52;8.20;;;1.77;;
35444;SDS011;21562;49.476;6.086;2022-09-27T18:26:19;6.05;;;1.40;;
35444;SDS011;21562;49.476;6.086;2022-09-27T18:28:48;5.90;;;1.48;;
35444;SDS011;21562;49.476;6.086;2022-09-27T18:31:19;9.38;;;1.40;;